Time;durP1;ratioP1;P1;durP2;ratioP2;P2;SDS_P1;SDS_P2;PMS_P1;PMS_P2;Temp;Humidity;BMP_temperature;BMP_pressure;BME280_temperature;BME280_humidity;BME280_pressure;Samples;Min_cycle;Max_cycle;Signal;HPM_P1;HPM_P2
2021/03/19 00:01:29;;;;;;;25.75;12.02;;;5.00;99.90;;;;;;5029905;28;20237;-67
2021/03/19 00:03:56;;;;;;;26.98;10.88;;;4.90;99.90;;;;;;5030027;28;20049;-67
2021/03/19 00:06:23;;;;;;;24.33;11.88;;;4.90;99.90;;;;;;5031326;28;20149;-67
2021/03/19 00:08:50;;;;;;;27.98;11.23;;;4.90;99.90;;;;;;5032539;28;20049;-67
2021/03/19 00:11:17;;;;;;;26.98;12.85;;;4.70;99.90;;;;;;5032427;28;20106;-67
2021/03/19 00:13:43;;;;;;;21.27;10.20;;;4.70;99.90;;;;;;5029460;28;20037;-67
2021/03/19 00:16:09;;;;;;;26.38;11.10;;;4.60;99.90;;;;;;5026112;28;20052;-67
2021/03/19 00:18:36;;;;;;;22.55;11.55;;;4.90;99.90;;;;;;5025998;28;20037;-67
2021/03/19 00:21:04;;;;;;;23.90;11.38;;;4.70;99.90;;;;;;5028688;28;20053;-66
2021/03/19 00:23:30;;;;;;;28.55;12.00;;;4.70;99.90;;;;;;5029985;28;20107;-67
2021/03/19 00:25:57;;;;;;;29.00;12.02;;;4.80;99.90;;;;;;5023674;28;20408;-67
2021/03/19 00:28:23;;;;;;;27.23;12.15;;;5.00;99.90;;;;;;5026024;28;20098;-67
2021/03/19 00:30:50;;;;;;;23.63;12.75;;;4.90;99.90;;;;;;5027058;28;20045;-67
2021/03/19 00:33:17;;;;;;;29.33;12.95;;;4.80;99.90;;;;;;5033166;28;20118;-67
2021/03/19 00:35:44;;;;;;;23.98;11.50;;;4.60;99.90;;;;;;5029045;28;20049;-67
2021/03/19 00:38:10;;;;;;;26.05;12.57;;;4.70;99.90;;;;;;5032406;28;20390;-67
2021/03/19 00:40:38;;;;;;;25.30;11.25;;;4.70;99.90;;;;;;5030971;28;20061;-66
2021/03/19 00:43:06;;;;;;;24.23;11.07;;;4.70;99.90;;;;;;5032009;28;20088;-67
2021/03/19 00:45:33;;;;;;;22.95;11.48;;;4.60;99.90;;;;;;5028772;28;20079;-67
2021/03/19 00:48:00;;;;;;;27.20;11.27;;;4.60;99.90;;;;;;5031751;28;20068;-67
2021/03/19 00:50:42;;;;;;;24.13;11.95;;;4.80;99.90;;;;;;5029730;28;20111;-66
2021/03/19 00:53:09;;;;;;;26.95;13.05;;;4.70;99.90;;;;;;5030959;28;20138;-67
2021/03/19 00:55:36;;;;;;;22.40;12.00;;;4.90;99.90;;;;;;5029309;28;20136;-67
2021/03/19 00:58:03;;;;;;;21.98;11.52;;;4.70;99.90;;;;;;5033854;28;20046;-67
2021/03/19 01:00:35;;;;;;;26.85;11.55;;;4.70;99.90;;;;;;5029421;28;20764;-66
2021/03/19 01:03:03;;;;;;;27.17;11.88;;;4.60;99.90;;;;;;5030677;28;20552;-67
2021/03/19 01:05:34;;;;;;;22.95;11.50;;;4.80;99.90;;;;;;5030562;28;20057;-66
2021/03/19 01:08:04;;;;;;;25.08;11.65;;;4.60;99.90;;;;;;5031673;28;20049;-67
2021/03/19 01:10:33;;;;;;;;;;;4.60;99.90;;;;;;5030425;28;20116;-67
2021/03/19 01:13:00;;;;;;;27.00;11.60;;;4.80;99.90;;;;;;5030184;28;19987;-67
2021/03/19 01:15:28;;;;;;;25.70;11.20;;;4.70;99.90;;;;;;5029436;28;20048;-67
2021/03/19 01:17:54;;;;;;;23.85;11.25;;;4.60;99.90;;;;;;5030958;28;20046;-67
2021/03/19 01:20:24;;;;;;;27.77;11.85;;;4.50;99.90;;;;;;5029766;28;20428;-67
2021/03/19 01:22:50;;;;;;;28.67;11.67;;;4.40;99.90;;;;;;5031673;28;20045;-66
2021/03/19 01:25:18;;;;;;;25.02;11.35;;;4.50;99.90;;;;;;5028835;28;20488;-67
2021/03/19 01:27:45;;;;;;;22.25;11.25;;;4.70;99.90;;;;;;5032167;28;20534;-67
2021/03/19 01:30:18;;;;;;;26.08;11.85;;;4.70;99.90;;;;;;5031503;28;20648;-67
2021/03/19 01:32:46;;;;;;;21.20;10.98;;;4.80;99.90;;;;;;5032034;28;20115;-67
2021/03/19 01:35:14;;;;;;;23.58;11.07;;;4.90;99.90;;;;;;5032041;28;20534;-66
2021/03/19 01:37:42;;;;;;;26.55;11.27;;;4.50;99.90;;;;;;5032044;28;20088;-68
2021/03/19 01:40:12;;;;;;;23.95;11.30;;;4.60;99.90;;;;;;5028909;28;20053;-65
2021/03/19 01:42:40;;;;;;;33.75;12.70;;;4.60;99.90;;;;;;5031672;28;20053;-66
2021/03/19 01:45:40;;;;;;;24.60;11.73;;;4.70;99.90;;;;;;5032361;28;20049;-66
2021/03/19 01:48:43;;;;;;;28.95;11.45;;;4.70;99.90;;;;;;5028658;28;20057;-66
2021/03/19 01:51:56;;;;;;;24.23;10.88;;;4.90;99.90;;;;;;5030176;28;20041;-66
2021/03/19 01:55:00;;;;;;;26.75;11.32;;;5.00;99.90;;;;;;5031219;28;20134;-66
2021/03/19 01:58:03;;;;;;;26.95;11.40;;;4.70;99.90;;;;;;5032107;28;20053;-66
2021/03/19 02:01:07;;;;;;;27.58;13.00;;;4.80;99.90;;;;;;5029121;28;20095;-70
2021/03/19 02:04:11;;;;;;;26.27;10.85;;;4.90;99.90;;;;;;5028661;28;20063;-67
2021/03/19 02:07:15;;;;;;;26.08;11.35;;;4.70;99.90;;;;;;5031383;28;20458;-66
2021/03/19 02:10:19;;;;;;;25.00;10.75;;;5.00;99.90;;;;;;5029503;28;20090;-67
2021/03/19 02:13:24;;;;;;;25.02;11.02;;;4.90;99.90;;;;;;5038937;28;20065;-66
2021/03/19 02:16:27;;;;;;;25.30;11.60;;;4.70;99.90;;;;;;5044557;28;20126;-67
2021/03/19 02:19:32;;;;;;;26.67;11.52;;;4.50;99.90;;;;;;5037295;28;20136;-67
2021/03/19 02:22:36;;;;;;;21.02;10.35;;;4.50;99.90;;;;;;5048434;28;20064;-67
2021/03/19 02:25:40;;;;;;;22.75;10.75;;;4.70;99.90;;;;;;5053528;28;20056;-67
2021/03/19 02:28:44;;;;;;;25.65;11.18;;;4.70;99.90;;;;;;5043153;28;20091;-68
2021/03/19 02:31:11;;;;;;;28.45;11.45;;;4.50;99.90;;;;;;5039926;28;20083;-68
2021/03/19 02:33:54;;;;;;;26.55;11.15;;;4.50;99.90;;;;;;5038226;28;20127;-66
2021/03/19 02:36:24;;;;;;;28.88;11.98;;;4.50;99.90;;;;;;5046331;28;20041;-67
2021/03/19 02:38:50;;;;;;;23.70;12.27;;;4.50;99.90;;;;;;5044824;28;20393;-67
2021/03/19 02:41:17;;;;;;;24.75;11.45;;;4.60;99.90;;;;;;5039996;28;20103;-67
2021/03/19 02:43:43;;;;;;;22.55;11.38;;;4.50;99.90;;;;;;5033869;28;20073;-68
2021/03/19 02:46:09;;;;;;;29.38;12.27;;;4.70;99.90;;;;;;5041655;28;20060;-67
2021/03/19 02:48:36;;;;;;;27.45;12.48;;;5.10;99.90;;;;;;5046273;28;20191;-67
2021/03/19 02:51:03;;;;;;;27.95;12.40;;;4.70;99.90;;;;;;5043374;28;20045;-67
2021/03/19 02:53:32;;;;;;;24.63;12.63;;;4.70;99.90;;;;;;5047307;28;20075;-67
2021/03/19 02:56:00;;;;;;;23.48;11.90;;;4.70;99.90;;;;;;5039895;28;20144;-68
2021/03/19 02:58:27;;;;;;;26.50;11.60;;;4.70;99.90;;;;;;5043857;28;20432;-68
2021/03/19 03:00:54;;;;;;;21.40;11.27;;;4.70;99.90;;;;;;5035716;28;20053;-67
2021/03/19 03:03:21;;;;;;;20.90;10.68;;;5.00;99.90;;;;;;5044776;28;20208;-67
2021/03/19 03:05:48;;;;;;;29.33;12.70;;;5.10;99.90;;;;;;5044264;28;20159;-67
2021/03/19 03:08:17;;;;;;;21.60;11.15;;;4.80;99.90;;;;;;5048765;28;20106;-67
2021/03/19 03:10:44;;;;;;;23.05;11.93;;;4.70;99.90;;;;;;5041459;28;20104;-67
2021/03/19 03:13:11;;;;;;;22.30;10.90;;;5.00;99.90;;;;;;5036166;28;20088;-66
2021/03/19 03:15:38;;;;;;;27.85;12.65;;;4.90;99.90;;;;;;5039321;28;20060;-68
2021/03/19 03:18:06;;;;;;;29.02;14.40;;;4.80;99.90;;;;;;5037774;28;20090;-66
2021/03/19 03:20:40;;;;;;;26.42;12.73;;;4.70;99.90;;;;;;5034025;28;20071;-66
2021/03/19 03:23:07;;;;;;;26.48;11.93;;;4.70;99.90;;;;;;5039792;28;20485;-68
2021/03/19 03:25:34;;;;;;;26.13;12.82;;;4.90;99.90;;;;;;5046365;28;20087;-67
2021/03/19 03:28:00;;;;;;;26.42;13.57;;;4.80;99.90;;;;;;5036101;28;20073;-67
2021/03/19 03:30:32;;;;;;;29.08;14.18;;;5.10;99.90;;;;;;5041611;28;20114;-67
2021/03/19 03:32:59;;;;;;;28.73;13.98;;;5.30;99.90;;;;;;5035953;28;20086;-67
2021/03/19 03:35:28;;;;;;;24.30;13.30;;;5.10;99.90;;;;;;5043014;28;20111;-67
2021/03/19 03:37:57;;;;;;;;;;;5.20;99.90;;;;;;5038952;28;20045;-67
2021/03/19 03:40:40;;;;;;;28.05;13.32;;;4.80;99.90;;;;;;5032597;28;19952;-67
2021/03/19 03:43:07;;;;;;;31.27;13.88;;;5.00;99.90;;;;;;5034878;28;20061;-66
2021/03/19 03:45:34;;;;;;;29.02;13.00;;;5.00;99.90;;;;;;5035585;28;20108;-67
2021/03/19 03:48:01;;;;;;;27.40;14.23;;;5.10;99.90;;;;;;5036818;28;20049;-67
2021/03/19 03:50:29;;;;;;;32.13;14.82;;;5.10;99.90;;;;;;5038801;28;20046;-66
2021/03/19 03:53:05;;;;;;;29.23;13.35;;;5.20;99.90;;;;;;5034201;28;20433;-67
2021/03/19 03:55:31;;;;;;;35.38;15.80;;;5.20;99.90;;;;;;5047666;28;20128;-67
2021/03/19 03:57:58;;;;;;;31.08;14.30;;;5.10;99.90;;;;;;5043042;28;20064;-67
2021/03/19 04:00:25;;;;;;;31.52;14.85;;;4.90;99.90;;;;;;5031936;28;20045;-67
2021/03/19 04:02:52;;;;;;;27.98;13.98;;;5.00;99.90;;;;;;5041821;28;20404;-67
2021/03/19 04:05:25;;;;;;;36.40;15.43;;;5.10;99.90;;;;;;5044867;28;20064;-69
2021/03/19 04:07:53;;;;;;;36.30;14.75;;;4.80;99.90;;;;;;5044388;28;20473;-66
2021/03/19 04:10:20;;;;;;;33.90;14.90;;;4.90;99.90;;;;;;5040718;28;20476;-68
2021/03/19 04:12:47;;;;;;;35.22;14.52;;;5.00;99.90;;;;;;5043147;28;20131;-68
2021/03/19 04:15:15;;;;;;;34.75;15.20;;;5.00;99.90;;;;;;5036488;28;20048;-67
2021/03/19 04:17:44;;;;;;;32.90;14.82;;;5.10;99.90;;;;;;5049671;28;20045;-69
2021/03/19 04:20:12;;;;;;;31.58;14.40;;;5.00;99.90;;;;;;5038943;28;20081;-69
2021/03/19 04:22:39;;;;;;;29.30;14.15;;;5.00;99.90;;;;;;5041885;28;20513;-68
2021/03/19 04:25:07;;;;;;;38.28;16.15;;;5.00;99.90;;;;;;5045714;28;20063;-66
2021/03/19 04:27:39;;;;;;;32.13;14.90;;;5.00;99.90;;;;;;5039496;28;20145;-68
2021/03/19 04:30:06;;;;;;;34.38;14.48;;;5.00;99.90;;;;;;5036011;28;20050;-67
2021/03/19 04:32:35;;;;;;;31.27;14.73;;;5.40;99.90;;;;;;5041395;28;20354;-68
2021/03/19 04:35:03;;;;;;;33.13;14.85;;;5.10;99.90;;;;;;5038587;28;20061;-68
2021/03/19 04:37:31;;;;;;;38.15;15.27;;;5.20;99.90;;;;;;5045879;28;20091;-68
2021/03/19 04:39:57;;;;;;;31.55;15.38;;;5.00;99.90;;;;;;5040687;28;20087;-66
2021/03/19 04:42:24;;;;;;;35.30;16.35;;;5.00;99.90;;;;;;5040675;28;20049;-67
2021/03/19 04:44:50;;;;;;;35.85;16.15;;;5.00;99.90;;;;;;5044117;28;20444;-66
2021/03/19 04:47:16;;;;;;;32.30;14.60;;;5.10;99.90;;;;;;5040884;28;20060;-67
2021/03/19 04:49:43;;;;;;;32.97;14.07;;;5.10;99.90;;;;;;5041758;28;20052;-67
2021/03/19 04:52:09;;;;;;;30.55;14.55;;;4.90;99.90;;;;;;5044085;28;20045;-67
2021/03/19 04:54:36;;;;;;;30.10;15.07;;;5.00;99.90;;;;;;5050784;28;20045;-67
2021/03/19 04:57:03;;;;;;;30.80;14.88;;;5.00;99.90;;;;;;5046208;28;20183;-67
2021/03/19 04:59:29;;;;;;;31.80;15.02;;;5.00;99.90;;;;;;5039931;28;20085;-67
2021/03/19 05:02:00;;;;;;;35.17;15.85;;;5.10;99.90;;;;;;5038886;28;20136;-67
2021/03/19 05:04:28;;;;;;;29.08;14.13;;;5.10;99.90;;;;;;5041251;28;20052;-68
2021/03/19 05:07:00;;;;;;;36.88;15.05;;;5.10;99.90;;;;;;5038006;28;20118;-66
2021/03/19 05:09:30;;;;;;;35.67;15.45;;;5.00;99.90;;;;;;5045436;28;20057;-67
2021/03/19 05:11:59;;;;;;;37.47;16.40;;;5.00;99.90;;;;;;5041867;28;20042;-68
2021/03/19 05:14:25;;;;;;;35.75;15.85;;;4.80;99.90;;;;;;5034910;28;20075;-67
2021/03/19 05:16:51;;;;;;;39.50;16.98;;;4.90;99.90;;;;;;5042667;28;20095;-66
2021/03/19 05:19:19;;;;;;;35.45;14.90;;;4.90;99.90;;;;;;5041159;28;20063;-68
2021/03/19 05:21:46;;;;;;;37.17;16.52;;;5.00;99.90;;;;;;5034270;28;20077;-68
2021/03/19 05:24:13;;;;;;;39.08;17.02;;;5.10;99.90;;;;;;5041140;28;20130;-67
2021/03/19 05:26:41;;;;;;;45.50;17.42;;;4.90;99.90;;;;;;5037513;28;20131;-67
2021/03/19 05:29:09;;;;;;;39.42;17.38;;;5.00;99.90;;;;;;5036068;28;20076;-67
2021/03/19 05:31:36;;;;;;;38.03;17.98;;;4.90;99.90;;;;;;5042644;28;20053;-66
2021/03/19 05:34:03;;;;;;;42.97;17.20;;;4.90;99.90;;;;;;5035424;28;20110;-66
2021/03/19 05:36:31;;;;;;;45.10;17.23;;;4.90;99.90;;;;;;5043967;28;20049;-67
2021/03/19 05:38:58;;;;;;;42.42;17.42;;;4.80;99.90;;;;;;5040654;28;20057;-66
2021/03/19 05:41:28;;;;;;;48.80;18.33;;;4.70;99.90;;;;;;5036756;28;20081;-66
2021/03/19 05:44:02;;;;;;;45.40;18.67;;;4.70;99.90;;;;;;5043932;28;20106;-67
2021/03/19 05:46:34;;;;;;;43.22;18.73;;;4.60;99.90;;;;;;5045340;28;20102;-68
2021/03/19 05:49:07;;;;;;;43.30;19.88;;;4.70;99.90;;;;;;5037176;28;20140;-66
2021/03/19 05:51:39;;;;;;;44.92;19.40;;;4.70;99.90;;;;;;5044381;28;20045;-69
2021/03/19 05:54:26;;;;;;;45.10;19.38;;;4.70;99.90;;;;;;5042352;28;20084;-66
2021/03/19 05:57:03;;;;;;;43.78;18.00;;;4.80;99.90;;;;;;5039699;28;20051;-67
2021/03/19 05:59:33;;;;;;;38.45;16.67;;;4.80;99.90;;;;;;5045731;28;20041;-67
2021/03/19 06:02:00;;;;;;;48.03;20.53;;;5.10;99.90;;;;;;5040934;28;20445;-67
2021/03/19 06:04:29;;;;;;;47.88;19.15;;;5.00;99.90;;;;;;5033451;28;20156;-67
2021/03/19 06:07:02;;;;;;;48.28;19.55;;;4.90;99.90;;;;;;5046884;28;20063;-67
2021/03/19 06:09:35;;;;;;;44.72;18.80;;;4.80;99.90;;;;;;5035133;28;20053;-68
2021/03/19 06:12:07;;;;;;;48.63;19.58;;;4.80;99.90;;;;;;5037128;28;20193;-67
2021/03/19 06:14:49;;;;;;;45.88;19.80;;;4.80;99.90;;;;;;5040665;28;20465;-68
2021/03/19 06:17:44;;;;;;;42.80;19.17;;;4.70;99.90;;;;;;5044175;28;20076;-68
2021/03/19 06:20:17;;;;;;;40.35;17.90;;;4.70;99.90;;;;;;5040493;28;20047;-67
2021/03/19 06:23:06;;;;;;;43.08;18.40;;;4.70;99.90;;;;;;5041203;28;20197;-67
2021/03/19 06:25:38;;;;;;;48.83;18.88;;;4.90;99.90;;;;;;5039716;28;20045;-67
2021/03/19 06:28:27;;;;;;;46.75;19.13;;;4.90;99.90;;;;;;5037866;28;20048;-67
2021/03/19 06:31:19;;;;;;;47.20;19.50;;;4.90;99.90;;;;;;5040475;28;20077;-67
2021/03/19 06:33:47;;;;;;;46.15;19.63;;;4.80;99.90;;;;;;5042708;28;20040;-67
2021/03/19 06:36:19;;;;;;;50.17;20.48;;;4.80;99.90;;;;;;5040214;28;20420;-69
2021/03/19 06:39:02;;;;;;;44.88;20.65;;;4.90;99.90;;;;;;5043219;28;20052;-67
2021/03/19 06:41:38;;;;;;;47.63;19.92;;;4.90;99.90;;;;;;5043152;28;20076;-67
2021/03/19 06:44:16;;;;;;;47.53;21.42;;;4.80;99.90;;;;;;5042894;28;20063;-67
2021/03/19 06:47:00;;;;;;;45.83;20.90;;;4.90;99.90;;;;;;5037400;28;20116;-68
2021/03/19 06:49:28;;;;;;;45.60;20.17;;;4.80;99.90;;;;;;5042344;28;20061;-68
2021/03/19 06:52:15;;;;;;;44.80;21.17;;;5.00;99.90;;;;;;5037671;28;20049;-67
2021/03/19 06:55:00;;;;;;;44.08;20.40;;;5.00;99.90;;;;;;5039658;28;20041;-68
2021/03/19 06:57:42;;;;;;;46.17;21.33;;;5.00;99.90;;;;;;5042332;28;20500;-67
2021/03/19 07:00:12;;;;;;;47.45;20.77;;;5.10;99.90;;;;;;5038201;28;20037;-67
2021/03/19 07:02:48;;;;;;;;;;;5.30;99.90;;;;;;5042693;28;20593;-67
2021/03/19 07:05:33;;;;;;;43.33;19.33;;;5.10;99.90;;;;;;5041186;28;19921;-68
2021/03/19 07:08:41;;;;;;;42.70;19.98;;;4.70;99.90;;;;;;5035631;28;20095;-67
2021/03/19 07:11:30;;;;;;;42.90;18.40;;;5.10;99.90;;;;;;5033240;28;20084;-68
2021/03/19 07:14:21;;;;;;;44.83;19.30;;;5.10;99.90;;;;;;5038751;28;20115;-67
2021/03/19 07:17:16;;;;;;;45.20;18.50;;;5.10;99.90;;;;;;5042838;28;20101;-67
2021/03/19 07:20:09;;;;;;;41.78;17.88;;;4.90;99.90;;;;;;5036192;28;20379;-67
2021/03/19 07:23:06;;;;;;;30.80;14.60;;;5.20;99.90;;;;;;5035871;28;20084;-69
2021/03/19 07:26:03;;;;;;;36.53;17.88;;;5.60;99.90;;;;;;5038622;28;20128;-68
2021/03/19 07:29:06;;;;;;;34.30;16.15;;;5.40;99.90;;;;;;5037914;28;20041;-68
2021/03/19 07:31:40;;;;;;;36.08;17.20;;;5.60;99.90;;;;;;5036415;28;20477;-69
2021/03/19 07:34:44;;;;;;;29.20;14.68;;;5.30;99.90;;;;;;5044169;28;20083;-67
2021/03/19 07:37:35;;;;;;;33.00;16.50;;;5.40;99.90;;;;;;5038043;28;20340;-68
2021/03/19 07:40:27;;;;;;;38.97;15.77;;;5.20;99.90;;;;;;5042466;28;20049;-66
2021/03/19 07:43:28;;;;;;;32.83;15.00;;;5.40;99.90;;;;;;5048430;28;20522;-67
2021/03/19 07:46:15;;;;;;;34.50;14.88;;;5.30;99.90;;;;;;5038273;28;20543;-68
2021/03/19 07:48:58;;;;;;;32.85;14.32;;;5.50;99.90;;;;;;5043899;28;20124;-67
2021/03/19 07:51:46;;;;;;;29.00;14.35;;;5.70;99.90;;;;;;5045949;28;20095;-66
2021/03/19 07:54:39;;;;;;;33.50;14.82;;;5.80;99.90;;;;;;5039997;28;20052;-68
2021/03/19 07:57:18;;;;;;;29.00;13.43;;;5.50;99.90;;;;;;5032210;28;20104;-69
2021/03/19 08:00:09;;;;;;;31.97;14.47;;;5.40;99.90;;;;;;5045038;28;20086;-68
2021/03/19 08:02:50;;;;;;;30.13;14.50;;;5.30;99.90;;;;;;5043560;28;20074;-67
2021/03/19 08:05:28;;;;;;;29.90;14.43;;;5.30;99.90;;;;;;5063576;28;20480;-68
2021/03/19 08:07:59;;;;;;;28.38;14.05;;;5.20;99.90;;;;;;5039315;28;20049;-67
2021/03/19 08:10:28;;;;;;;;;;;5.30;99.90;;;;;;5042192;28;20087;-69
2021/03/19 08:13:01;;;;;;;31.00;12.85;;;5.80;99.90;;;;;;5038326;28;19962;-67
2021/03/19 08:15:34;;;;;;;31.52;13.90;;;5.50;99.90;;;;;;5048820;28;20045;-67
2021/03/19 08:18:20;;;;;;;30.42;12.68;;;5.40;99.90;;;;;;5042326;28;20080;-68
2021/03/19 08:21:19;;;;;;;27.95;11.65;;;5.40;99.90;;;;;;5036820;28;20053;-67
2021/03/19 08:24:23;;;;;;;29.70;12.77;;;5.50;99.90;;;;;;5036691;28;20037;-69
2021/03/19 08:27:04;;;;;;;26.25;11.80;;;5.50;99.90;;;;;;5025930;28;20489;-67
2021/03/19 08:29:51;;;;;;;23.83;12.00;;;5.70;99.50;;;;;;5046907;28;20045;-68
2021/03/19 08:32:23;;;;;;;27.52;12.25;;;5.80;98.40;;;;;;5036062;28;20049;-68
2021/03/19 08:34:50;;;;;;;25.85;12.05;;;6.00;98.60;;;;;;5041792;28;20049;-68
2021/03/19 08:37:54;;;;;;;27.90;12.45;;;5.90;97.60;;;;;;5047594;28;20786;-68
2021/03/19 08:40:38;;;;;;;24.90;10.82;;;5.80;97.80;;;;;;5040441;28;20042;-68
2021/03/19 08:43:13;;;;;;;22.65;10.50;;;5.90;98.50;;;;;;5037936;28;20045;-67
2021/03/19 08:45:40;;;;;;;25.52;11.02;;;6.20;96.20;;;;;;5047366;28;20068;-68
2021/03/19 08:48:13;;;;;;;25.05;11.07;;;6.50;96.90;;;;;;5047625;28;20484;-68
2021/03/19 08:50:44;;;;;;;23.50;11.00;;;7.00;94.60;;;;;;5032178;28;20153;-67
2021/03/19 08:53:20;;;;;;;26.02;10.70;;;6.70;94.80;;;;;;5042154;28;20056;-68
2021/03/19 08:56:11;;;;;;;23.60;10.80;;;6.50;94.80;;;;;;5043600;28;20076;-67
2021/03/19 08:58:50;;;;;;;22.95;10.35;;;5.90;96.10;;;;;;5040430;28;20048;-67
2021/03/19 09:01:45;;;;;;;20.58;9.73;;;5.90;96.40;;;;;;5039938;28;20081;-67
2021/03/19 09:04:14;;;;;;;15.93;8.30;;;6.00;95.70;;;;;;5043028;28;20053;-67
2021/03/19 09:07:19;;;;;;;17.83;8.88;;;6.20;96.00;;;;;;5037218;28;20486;-67
2021/03/19 09:09:46;;;;;;;16.20;8.88;;;6.10;94.40;;;;;;5038827;28;20455;-67
2021/03/19 09:12:19;;;;;;;18.05;8.82;;;6.90;93.10;;;;;;5041991;28;20077;-67
2021/03/19 09:14:50;;;;;;;18.88;9.02;;;7.30;91.40;;;;;;5034980;28;20068;-67
2021/03/19 09:17:49;;;;;;;18.42;9.05;;;7.00;91.10;;;;;;5046041;28;20634;-68
2021/03/19 09:20:38;;;;;;;16.17;7.88;;;6.40;91.30;;;;;;5043937;28;20044;-68
2021/03/19 09:23:08;;;;;;;17.15;8.68;;;6.50;90.80;;;;;;5043108;28;20042;-68
2021/03/19 09:25:40;;;;;;;19.83;9.95;;;6.30;90.70;;;;;;5038359;28;20061;-67
2021/03/19 09:28:21;;;;;;;18.77;8.75;;;6.30;90.90;;;;;;5042123;28;20549;-68
2021/03/19 09:30:56;;;;;;;19.02;8.70;;;6.30;90.40;;;;;;5037418;28;20049;-68
2021/03/19 09:33:44;;;;;;;16.15;8.80;;;6.20;90.90;;;;;;5045315;28;20456;-67
2021/03/19 09:36:51;;;;;;;19.38;8.55;;;6.40;89.60;;;;;;5039005;28;20396;-67
2021/03/19 09:39:49;;;;;;;19.65;7.70;;;6.50;88.90;;;;;;5041379;28;20048;-67
2021/03/19 09:42:18;;;;;;;17.70;8.98;;;6.50;88.00;;;;;;5042440;28;20511;-67
2021/03/19 09:44:48;;;;;;;17.38;8.88;;;6.50;89.00;;;;;;5037467;28;20041;-67
2021/03/19 09:47:38;;;;;;;19.30;9.43;;;6.80;88.00;;;;;;5044988;28;20049;-67
2021/03/19 09:50:33;;;;;;;20.95;9.65;;;7.00;88.20;;;;;;5051451;28;20461;-67
2021/03/19 09:53:20;;;;;;;17.50;8.98;;;7.00;87.50;;;;;;5049647;28;20415;-68
2021/03/19 09:55:51;;;;;;;18.92;8.90;;;7.20;85.90;;;;;;5037076;28;20044;-68
2021/03/19 09:58:37;;;;;;;14.60;7.32;;;7.30;84.40;;;;;;5043584;28;20052;-68
2021/03/19 10:01:40;;;;;;;16.58;8.90;;;7.10;84.90;;;;;;5038220;28;20104;-68
2021/03/19 10:04:25;;;;;;;16.90;8.10;;;6.90;80.90;;;;;;5041746;28;20055;-67
2021/03/19 10:06:51;;;;;;;18.48;7.88;;;7.10;81.70;;;;;;5038642;28;20053;-67
2021/03/19 10:09:25;;;;;;;15.73;8.10;;;6.90;82.70;;;;;;5041358;28;20496;-66
2021/03/19 10:12:04;;;;;;;18.30;8.35;;;6.80;82.50;;;;;;5042438;28;20481;-67
2021/03/19 10:14:35;;;;;;;18.95;8.68;;;6.90;81.70;;;;;;5040147;28;20076;-67
2021/03/19 10:17:11;;;;;;;78.75;31.15;;;6.80;83.20;;;;;;5045192;28;20045;-67
2021/03/19 10:19:44;;;;;;;19.60;9.35;;;6.60;81.90;;;;;;5033834;28;20464;-67
2021/03/19 10:22:25;;;;;;;16.85;7.80;;;6.50;82.60;;;;;;5042466;28;20369;-68
2021/03/19 10:24:51;;;;;;;17.27;7.63;;;6.40;81.70;;;;;;5044274;28;20044;-68
2021/03/19 10:27:18;;;;;;;10.88;5.63;;;6.40;82.80;;;;;;5035582;28;21374;-68
2021/03/19 10:29:47;;;;;;;13.05;6.35;;;6.10;83.80;;;;;;5039521;28;20064;-67
2021/03/19 10:32:16;;;;;;;12.23;5.90;;;6.50;86.00;;;;;;5042895;28;20135;-68
2021/03/19 10:34:57;;;;;;;14.32;6.28;;;6.00;83.50;;;;;;5047482;28;20048;-68
2021/03/19 10:37:38;;;;;;;12.05;6.13;;;6.10;85.50;;;;;;5041491;28;20198;-69
2021/03/19 10:40:10;;;;;;;13.52;6.40;;;6.10;86.10;;;;;;5046431;28;20486;-69
2021/03/19 10:43:09;;;;;;;12.27;6.30;;;6.20;85.30;;;;;;5043270;28;20053;-68
2021/03/19 10:45:56;;;;;;;12.65;6.30;;;6.20;85.30;;;;;;5040986;28;20076;-68
2021/03/19 10:48:46;;;;;;;12.10;6.35;;;6.20;84.10;;;;;;5045172;28;20070;-68
2021/03/19 10:51:34;;;;;;;13.23;5.93;;;6.30;83.00;;;;;;5044885;28;20049;-69
2021/03/19 10:54:13;;;;;;;12.02;6.30;;;6.70;83.40;;;;;;5046222;28;20350;-68
2021/03/19 10:56:54;;;;;;;10.60;6.15;;;7.00;81.20;;;;;;5043578;28;20079;-68
2021/03/19 10:59:32;;;;;;;13.13;6.15;;;7.30;79.50;;;;;;5043933;28;20433;-69
2021/03/19 11:02:16;;;;;;;12.73;6.55;;;7.50;77.00;;;;;;5048157;28;20700;-68
2021/03/19 11:05:01;;;;;;;11.45;6.20;;;8.20;75.00;;;;;;5044485;28;20053;-69
2021/03/19 11:07:27;;;;;;;11.80;6.13;;;8.20;72.30;;;;;;5045819;28;20122;-69
2021/03/19 11:10:09;;;;;;;12.32;6.47;;;8.50;69.60;;;;;;5046347;28;20124;-69
2021/03/19 11:12:41;;;;;;;11.40;6.22;;;8.20;70.60;;;;;;5046328;28;20138;-68
2021/03/19 11:15:14;;;;;;;12.63;6.72;;;7.80;70.80;;;;;;5042146;28;20063;-68
2021/03/19 11:17:41;;;;;;;12.73;6.57;;;7.40;72.40;;;;;;5046880;28;20135;-68
2021/03/19 11:20:23;;;;;;;16.15;7.93;;;7.20;72.00;;;;;;5044987;28;20048;-68
2021/03/19 11:22:50;;;;;;;11.95;6.05;;;7.10;74.10;;;;;;5046249;28;20060;-68
2021/03/19 11:25:33;;;;;;;13.27;5.90;;;7.10;73.70;;;;;;5045407;28;20053;-68
2021/03/19 11:28:00;;;;;;;11.25;4.80;;;7.10;71.90;;;;;;5046877;28;20068;-68
2021/03/19 11:30:37;;;;;;;10.70;5.20;;;7.20;70.50;;;;;;5038124;28;20064;-68
2021/03/19 11:33:08;;;;;;;8.23;5.10;;;7.40;68.30;;;;;;5046658;28;20130;-68
2021/03/19 11:35:36;;;;;;;7.90;4.75;;;7.70;66.00;;;;;;5044689;28;20463;-69
2021/03/19 11:38:12;;;;;;;11.20;5.28;;;7.80;65.40;;;;;;5071527;28;20053;-69
2021/03/19 11:40:43;;;;;;;9.82;4.88;;;8.10;65.60;;;;;;5036616;28;20060;-69
2021/03/19 11:43:10;;;;;;;7.47;3.97;;;8.20;66.10;;;;;;5041900;28;20480;-68
2021/03/19 11:45:40;;;;;;;9.73;4.40;;;8.30;62.20;;;;;;5036372;28;20094;-69
2021/03/19 11:48:16;;;;;;;6.65;3.60;;;8.00;59.60;;;;;;5043650;28;20130;-68
2021/03/19 11:50:49;;;;;;;9.25;4.05;;;8.30;58.30;;;;;;5040320;28;20486;-69
2021/03/19 11:53:24;;;;;;;8.90;4.25;;;8.10;59.30;;;;;;5044750;28;20045;-70
2021/03/19 11:55:53;;;;;;;10.23;5.18;;;8.10;60.70;;;;;;5045811;28;20052;-67
2021/03/19 11:58:23;;;;;;;11.60;5.63;;;8.20;61.70;;;;;;5046175;28;20053;-68
2021/03/19 12:00:51;;;;;;;11.40;5.50;;;8.30;62.30;;;;;;5044730;28;20491;-69
2021/03/19 12:03:52;;;;;;;9.95;5.15;;;8.20;61.80;;;;;;5041551;28;20567;-69
2021/03/19 12:06:26;;;;;;;13.93;5.55;;;8.20;61.10;;;;;;5038399;28;20051;-69
2021/03/19 12:08:55;;;;;;;11.68;5.65;;;8.50;62.80;;;;;;5041743;28;20147;-68
2021/03/19 12:11:43;;;;;;;7.97;4.60;;;8.60;60.60;;;;;;5043898;28;20512;-68
2021/03/19 12:14:24;;;;;;;11.82;5.90;;;8.70;59.40;;;;;;5044934;28;20122;-69
2021/03/19 12:16:51;;;;;;;9.32;4.65;;;9.20;61.00;;;;;;5045127;28;20073;-70
2021/03/19 12:19:19;;;;;;;10.40;5.03;;;9.30;56.80;;;;;;5046214;28;20383;-70
2021/03/19 12:21:46;;;;;;;11.32;4.32;;;8.70;57.60;;;;;;5046134;28;20496;-72
2021/03/19 12:24:15;;;;;;;12.20;4.68;;;8.30;59.60;;;;;;5044692;28;20053;-71
2021/03/19 12:26:41;;;;;;;9.40;5.20;;;7.90;58.70;;;;;;5042396;28;20488;-73
2021/03/19 12:29:11;;;;;;;8.48;4.47;;;7.90;59.00;;;;;;5045996;28;20059;-72
2021/03/19 12:31:38;;;;;;;9.13;4.85;;;8.30;61.60;;;;;;5042614;28;20120;-70
2021/03/19 12:34:05;;;;;;;10.70;5.25;;;8.30;58.90;;;;;;5041614;28;20559;-70
2021/03/19 12:36:31;;;;;;;9.68;5.18;;;8.50;59.00;;;;;;5045863;28;20049;-70
2021/03/19 12:38:58;;;;;;;8.95;4.75;;;8.50;57.70;;;;;;5042193;28;20052;-69
2021/03/19 12:41:24;;;;;;;9.77;4.80;;;9.20;57.80;;;;;;5048462;28;20052;-76
2021/03/19 12:43:51;;;;;;;13.05;4.85;;;9.50;56.50;;;;;;5049098;28;20098;-73
2021/03/19 12:46:18;;;;;;;11.00;5.20;;;9.00;58.20;;;;;;5039580;28;20511;-72
2021/03/19 12:48:45;;;;;;;9.35;4.38;;;8.50;70.40;;;;;;5049705;28;20064;-73
2021/03/19 12:51:11;;;;;;;6.68;4.10;;;8.00;66.10;;;;;;5046433;28;20141;-72
2021/03/19 12:53:38;;;;;;;8.45;4.60;;;7.80;73.60;;;;;;5047864;28;20145;-75
2021/03/19 12:56:06;;;;;;;8.40;4.70;;;7.30;68.40;;;;;;5046371;28;20219;-69
2021/03/19 12:58:34;;;;;;;7.20;4.40;;;6.90;71.30;;;;;;5047169;28;20068;-70
2021/03/19 13:01:00;;;;;;;10.65;4.90;;;7.00;70.60;;;;;;5046831;28;20492;-70
2021/03/19 13:03:31;;;;;;;9.57;4.22;;;7.00;68.70;;;;;;5046195;28;20072;-69
2021/03/19 13:05:58;;;;;;;8.60;4.25;;;7.20;68.10;;;;;;5045209;28;20052;-68
2021/03/19 13:08:25;;;;;;;7.93;4.32;;;7.80;65.80;;;;;;5045394;28;20098;-69
2021/03/19 13:10:51;;;;;;;8.90;3.88;;;8.40;64.10;;;;;;5047745;28;20056;-67
2021/03/19 13:13:18;;;;;;;8.70;4.15;;;8.70;60.50;;;;;;5043200;28;20134;-68
2021/03/19 13:15:46;;;;;;;8.95;3.90;;;8.70;60.20;;;;;;5046700;28;20504;-68
2021/03/19 13:18:14;;;;;;;8.32;4.40;;;9.20;59.70;;;;;;5045334;28;20072;-70
2021/03/19 13:20:42;;;;;;;8.50;3.95;;;8.60;59.70;;;;;;5045061;28;20055;-69
2021/03/19 13:23:08;;;;;;;9.25;4.72;;;8.70;58.80;;;;;;5047924;28;20052;-69
2021/03/19 13:25:38;;;;;;;12.40;3.85;;;8.40;57.50;;;;;;5045030;28;20057;-68